CYYR

Goose Bay Airport

Goose Bay, Canada
METAR CYYR 152000Z 25021G27KT 15SM FEW071 26/14 A2973 RMK CU2 SLP067
Observed Flight Rules
Jul-15 @ 20:00 UTC (an hour ago) Visual Flight Rules
Wind Visibility Clouds
250° at 21 knots
 Gusting to 27 knots
15 miles
  • Few at 7,100' AGL
Temperatures Readings
Current 26°C / 79°F
Dewpoint 14°C / 57°F
Humidity 48%
Altimeter 29.73" Hg
Pressure 1006.7 hPa
Elevation 49
METAR CYYR 152000Z 25021G27KT 15SM FEW071 26/14 A2973 RMK CU2 SLP067
Observed Flight Rules
Jul-15 @ 20:00 UTC
(an hour ago)
VFR
Wind Visibility
250° at 21 knots
 Gusting to 27 knots
15 miles
Clouds
  • Few at 7,100' AGL
Temperature Dewpoint
26°C / 79°F 14°C / 57°F
Humidity Altimeter Pressure
48% 29.73" Hg 1006.7 hPa